VOZ1495 YBBN-YBHM
Flight info
| Callsign | VOZ1495 |
|---|---|
| Flight time | 1h 27m |
| Altitude | 38000 |
| Route | BIXAD Q67 OVRON |
| Aircraft | B738/M-SAE3DGHIM1RWZ/LB1 |
Departure
| Time | 2026-05-05 01:50 |
|---|---|
| Airport | Brisbane International Airport (YBBN) |
Arrival
| Time | 2026-05-05 03:17 |
|---|---|
| Airport | Hamilton Island Airport (YBHM) |
| Time | Latitude | Longitude | Altitude | Speed | Heading |
|---|---|---|---|---|---|
| 2026-05-05 01:09 | -27.38807 | 153.12005 | 17 ft | 0 kts | 279° |
| 2026-05-05 01:36 | -27.38807 | 153.12007 | 17 ft | 2 kts | 279° |
| 2026-05-05 01:36 | -27.38811 | 153.12035 | 20 ft | 3 kts | 279° |
| 2026-05-05 01:36 | -27.38812 | 153.12055 | 20 ft | 4 kts | 263° |
| 2026-05-05 01:37 | -27.38816 | 153.12077 | 20 ft | 4 kts | 297° |
| 2026-05-05 01:37 | -27.38833 | 153.12095 | 21 ft | 4 kts | 334° |
| 2026-05-05 01:37 | -27.38855 | 153.12100 | 18 ft | 4 kts | 36° |
| 2026-05-05 01:37 | -27.38872 | 153.12082 | 18 ft | 3 kts | 43° |
| 2026-05-05 01:38 | -27.38874 | 153.12080 | 18 ft | 0 kts | 43° |
| 2026-05-05 01:41 | -27.38872 | 153.12083 | 17 ft | 2 kts | 48° |
| 2026-05-05 01:41 | -27.38867 | 153.12110 | 17 ft | 6 kts | 90° |
| 2026-05-05 01:41 | -27.38881 | 153.12166 | 17 ft | 9 kts | 111° |
| 2026-05-05 01:42 | -27.38881 | 153.12247 | 19 ft | 12 kts | 57° |
| 2026-05-05 01:42 | -27.38797 | 153.12303 | 17 ft | 16 kts | 27° |
| 2026-05-05 01:42 | -27.38687 | 153.12367 | 46 ft | 19 kts | 27° |
| 2026-05-05 01:42 | -27.38563 | 153.12436 | 17 ft | 20 kts | 27° |
| 2026-05-05 01:43 | -27.38442 | 153.12505 | 18 ft | 19 kts | 27° |
| 2026-05-05 01:43 | -27.38327 | 153.12572 | 18 ft | 18 kts | 27° |
| 2026-05-05 01:43 | -27.38215 | 153.12636 | 19 ft | 18 kts | 27° |
| 2026-05-05 01:43 | -27.38107 | 153.12697 | 17 ft | 17 kts | 26° |
| 2026-05-05 01:44 | -27.38004 | 153.12756 | 17 ft | 15 kts | 27° |
| 2026-05-05 01:44 | -27.37926 | 153.12712 | 17 ft | 15 kts | 297° |
| 2026-05-05 01:44 | -27.37875 | 153.12600 | 17 ft | 20 kts | 297° |
| 2026-05-05 01:44 | -27.37801 | 153.12437 | 18 ft | 25 kts | 297° |
| 2026-05-05 01:45 | -27.37723 | 153.12270 | 17 ft | 23 kts | 297° |
| 2026-05-05 01:45 | -27.37652 | 153.12111 | 17 ft | 22 kts | 297° |
| 2026-05-05 01:45 | -27.37581 | 153.11957 | 17 ft | 22 kts | 297° |
| 2026-05-05 01:45 | -27.37512 | 153.11807 | 17 ft | 21 kts | 297° |
| 2026-05-05 01:46 | -27.37448 | 153.11666 | 17 ft | 18 kts | 297° |
| 2026-05-05 01:46 | -27.37407 | 153.11552 | 17 ft | 14 kts | 268° |
| 2026-05-05 01:46 | -27.37475 | 153.11484 | 17 ft | 14 kts | 207° |
| 2026-05-05 01:46 | -27.37564 | 153.11433 | 17 ft | 14 kts | 206° |
| 2026-05-05 01:47 | -27.37652 | 153.11384 | 17 ft | 14 kts | 207° |
| 2026-05-05 01:47 | -27.37735 | 153.11336 | 19 ft | 13 kts | 207° |
| 2026-05-05 01:47 | -27.37815 | 153.11289 | 17 ft | 13 kts | 207° |
| 2026-05-05 01:47 | -27.37886 | 153.11243 | 17 ft | 11 kts | 233° |
| 2026-05-05 01:48 | -27.37871 | 153.11166 | 17 ft | 11 kts | 296° |
| 2026-05-05 01:48 | -27.37847 | 153.11113 | 17 ft | 4 kts | 298° |
| 2026-05-05 01:48 | -27.37836 | 153.11089 | 17 ft | 4 kts | 298° |
| 2026-05-05 01:48 | -27.37818 | 153.11051 | 17 ft | 8 kts | 297° |
| 2026-05-05 01:49 | -27.37774 | 153.10994 | 17 ft | 11 kts | 352° |
| 2026-05-05 01:49 | -27.37698 | 153.11029 | 18 ft | 16 kts | 27° |
| 2026-05-05 01:49 | -27.37432 | 153.11181 | 17 ft | 73 kts | 27° |
| 2026-05-05 01:49 | -27.36806 | 153.11537 | 17 ft | 126 kts | 27° |
| 2026-05-05 01:50 | -27.35917 | 153.12042 | 88 ft | 159 kts | 29° |
| 2026-05-05 01:50 | -27.34934 | 153.12599 | 567 ft | 161 kts | 28° |
| 2026-05-05 01:50 | -27.33925 | 153.13181 | 1074 ft | 166 kts | 27° |
| 2026-05-05 01:50 | -27.32847 | 153.13797 | 1705 ft | 183 kts | 29° |
| 2026-05-05 01:51 | -27.31638 | 153.14502 | 2380 ft | 209 kts | 28° |
| 2026-05-05 01:51 | -27.30284 | 153.15280 | 2852 ft | 229 kts | 28° |
| 2026-05-05 01:51 | -27.28819 | 153.16147 | 3255 ft | 249 kts | 28° |
| 2026-05-05 01:51 | -27.27194 | 153.17073 | 3612 ft | 270 kts | 27° |
| 2026-05-05 01:52 | -27.25516 | 153.18011 | 4445 ft | 271 kts | 27° |
| 2026-05-05 01:52 | -27.23806 | 153.18972 | 5206 ft | 277 kts | 27° |
| 2026-05-05 01:52 | -27.22094 | 153.19942 | 6104 ft | 275 kts | 26° |
| 2026-05-05 01:52 | -27.20374 | 153.20919 | 6807 ft | 280 kts | 26° |
| 2026-05-05 01:53 | -27.18595 | 153.21818 | 7499 ft | 283 kts | 14° |
| 2026-05-05 01:53 | -27.16667 | 153.22151 | 8196 ft | 285 kts | 6° |
| 2026-05-05 01:53 | -27.14871 | 153.22354 | 8843 ft | 288 kts | 5° |
| 2026-05-05 01:53 | -27.12860 | 153.22585 | 9540 ft | 292 kts | 6° |
| 2026-05-05 01:54 | -27.10828 | 153.22831 | 10227 ft | 296 kts | 6° |
| 2026-05-05 01:54 | -27.08718 | 153.23098 | 10487 ft | 316 kts | 6° |
| 2026-05-05 01:54 | -27.06492 | 153.23388 | 10659 ft | 337 kts | 6° |
| 2026-05-05 01:54 | -27.04097 | 153.23704 | 10817 ft | 356 kts | 5° |
| 2026-05-05 01:55 | -27.01598 | 153.23993 | 11206 ft | 365 kts | 2° |
| 2026-05-05 01:55 | -26.99049 | 153.24095 | 11796 ft | 367 kts | 359° |
| 2026-05-05 01:55 | -26.96495 | 153.24123 | 12484 ft | 367 kts | 358° |
| 2026-05-05 01:55 | -26.93938 | 153.24140 | 13151 ft | 369 kts | 358° |
| 2026-05-05 01:56 | -26.91366 | 153.24165 | 13798 ft | 371 kts | 358° |
| 2026-05-05 01:56 | -26.88776 | 153.24201 | 14372 ft | 373 kts | 358° |
| 2026-05-05 01:56 | -26.86172 | 153.24247 | 14923 ft | 376 kts | 358° |
| 2026-05-05 01:56 | -26.83552 | 153.24299 | 15478 ft | 378 kts | 357° |
| 2026-05-05 01:57 | -26.80906 | 153.24354 | 16038 ft | 381 kts | 357° |
| 2026-05-05 01:57 | -26.78272 | 153.24409 | 16579 ft | 384 kts | 357° |
| 2026-05-05 01:57 | -26.75592 | 153.24465 | 17109 ft | 387 kts | 356° |
| 2026-05-05 01:57 | -26.72891 | 153.24521 | 17630 ft | 390 kts | 356° |
| 2026-05-05 01:58 | -26.70172 | 153.24574 | 18144 ft | 392 kts | 355° |
| 2026-05-05 01:58 | -26.67494 | 153.24185 | 18581 ft | 387 kts | 339° |
| 2026-05-05 01:58 | -26.64938 | 153.23255 | 19080 ft | 386 kts | 338° |
| 2026-05-05 01:58 | -26.62426 | 153.22346 | 19546 ft | 388 kts | 338° |
| 2026-05-05 01:59 | -26.59847 | 153.21428 | 19998 ft | 390 kts | 338° |
| 2026-05-05 01:59 | -26.57253 | 153.20517 | 20453 ft | 392 kts | 338° |
| 2026-05-05 01:59 | -26.54642 | 153.19607 | 20880 ft | 394 kts | 338° |
| 2026-05-05 01:59 | -26.52012 | 153.18695 | 21275 ft | 397 kts | 338° |
| 2026-05-05 02:00 | -26.49398 | 153.17793 | 21709 ft | 399 kts | 338° |
| 2026-05-05 02:00 | -26.46741 | 153.16879 | 22160 ft | 400 kts | 338° |
| 2026-05-05 02:00 | -26.44040 | 153.15949 | 22592 ft | 402 kts | 338° |
| 2026-05-05 02:00 | -26.41360 | 153.15027 | 22993 ft | 404 kts | 338° |
| 2026-05-05 02:01 | -26.38664 | 153.14099 | 23394 ft | 406 kts | 338° |
| 2026-05-05 02:01 | -26.35989 | 153.13179 | 23758 ft | 408 kts | 338° |
| 2026-05-05 02:01 | -26.33277 | 153.12247 | 24172 ft | 407 kts | 338° |
| 2026-05-05 02:01 | -26.30571 | 153.11314 | 24540 ft | 407 kts | 336° |
| 2026-05-05 02:02 | -26.27956 | 153.10127 | 24845 ft | 404 kts | 329° |
| 2026-05-05 02:02 | -26.25536 | 153.08558 | 25141 ft | 401 kts | 321° |
| 2026-05-05 02:02 | -26.23292 | 153.06700 | 25405 ft | 403 kts | 320° |
| 2026-05-05 02:02 | -26.21014 | 153.04856 | 25726 ft | 405 kts | 320° |
| 2026-05-05 02:03 | -26.18757 | 153.02969 | 26069 ft | 405 kts | 319° |
| 2026-05-05 02:03 | -26.16501 | 153.01088 | 26417 ft | 406 kts | 319° |
| 2026-05-05 02:03 | -26.14229 | 152.99216 | 26736 ft | 407 kts | 320° |
| 2026-05-05 02:03 | -26.11944 | 152.97348 | 27052 ft | 408 kts | 320° |
| 2026-05-05 02:04 | -26.09649 | 152.95482 | 27348 ft | 409 kts | 320° |
| 2026-05-05 02:04 | -26.07339 | 152.93622 | 27643 ft | 410 kts | 320° |
| 2026-05-05 02:04 | -26.05020 | 152.91762 | 27928 ft | 411 kts | 320° |
| 2026-05-05 02:04 | -26.02696 | 152.89901 | 28207 ft | 412 kts | 320° |
| 2026-05-05 02:05 | -26.00364 | 152.88032 | 28491 ft | 413 kts | 320° |
| 2026-05-05 02:05 | -25.98029 | 152.86162 | 28767 ft | 414 kts | 320° |
| 2026-05-05 02:05 | -25.95692 | 152.84291 | 29099 ft | 414 kts | 320° |
| 2026-05-05 02:05 | -25.93366 | 152.82429 | 29548 ft | 410 kts | 320° |
| 2026-05-05 02:06 | -25.91093 | 152.80610 | 29988 ft | 408 kts | 320° |
| 2026-05-05 02:06 | -25.88789 | 152.78765 | 30247 ft | 409 kts | 320° |
| 2026-05-05 02:06 | -25.86482 | 152.76918 | 30538 ft | 408 kts | 320° |
| 2026-05-05 02:06 | -25.84186 | 152.75081 | 30906 ft | 406 kts | 320° |
| 2026-05-05 02:07 | -25.81903 | 152.73257 | 31303 ft | 403 kts | 320° |
| 2026-05-05 02:07 | -25.79657 | 152.71462 | 31655 ft | 401 kts | 320° |
| 2026-05-05 02:07 | -25.77394 | 152.69654 | 31991 ft | 400 kts | 320° |
| 2026-05-05 02:07 | -25.75138 | 152.67852 | 32326 ft | 399 kts | 320° |
| 2026-05-05 02:08 | -25.72890 | 152.66058 | 32704 ft | 397 kts | 320° |
| 2026-05-05 02:08 | -25.70657 | 152.64277 | 33077 ft | 395 kts | 320° |
| 2026-05-05 02:08 | -25.68434 | 152.62504 | 33420 ft | 393 kts | 320° |
| 2026-05-05 02:08 | -25.66216 | 152.60737 | 33737 ft | 392 kts | 320° |
| 2026-05-05 02:09 | -25.64006 | 152.58976 | 34071 ft | 391 kts | 320° |
| 2026-05-05 02:09 | -25.61801 | 152.57220 | 34369 ft | 389 kts | 320° |
| 2026-05-05 02:09 | -25.59605 | 152.55472 | 34573 ft | 390 kts | 320° |
| 2026-05-05 02:09 | -25.57386 | 152.53704 | 34575 ft | 396 kts | 320° |
| 2026-05-05 02:10 | -25.55140 | 152.51917 | 34717 ft | 398 kts | 320° |
| 2026-05-05 02:10 | -25.52897 | 152.50135 | 35031 ft | 395 kts | 320° |
| 2026-05-05 02:10 | -25.50676 | 152.48373 | 35421 ft | 391 kts | 320° |
| 2026-05-05 02:10 | -25.48476 | 152.46629 | 35762 ft | 388 kts | 320° |
| 2026-05-05 02:11 | -25.46284 | 152.44891 | 36016 ft | 387 kts | 319° |
| 2026-05-05 02:11 | -25.44095 | 152.43154 | 36239 ft | 387 kts | 319° |
| 2026-05-05 02:11 | -25.41913 | 152.41423 | 36500 ft | 385 kts | 319° |
| 2026-05-05 02:11 | -25.39743 | 152.39704 | 36803 ft | 383 kts | 319° |
| 2026-05-05 02:12 | -25.37586 | 152.37996 | 37098 ft | 380 kts | 319° |
| 2026-05-05 02:12 | -25.33288 | 152.34593 | 37513 ft | 380 kts | 319° |
| 2026-05-05 02:12 | -25.31171 | 152.32918 | 37707 ft | 379 kts | 319° |
| 2026-05-05 02:13 | -25.29029 | 152.31225 | 37968 ft | 377 kts | 318° |
| 2026-05-05 02:13 | -25.24736 | 152.27831 | 38049 ft | 381 kts | 318° |
| 2026-05-05 02:14 | -25.20421 | 152.24425 | 38045 ft | 380 kts | 318° |
| 2026-05-05 02:14 | -25.16130 | 152.21043 | 38045 ft | 378 kts | 318° |
| 2026-05-05 02:15 | -25.11864 | 152.17682 | 38038 ft | 376 kts | 318° |
| 2026-05-05 02:15 | -25.07618 | 152.14339 | 38044 ft | 374 kts | 318° |
| 2026-05-05 02:16 | -25.03381 | 152.11005 | 38053 ft | 374 kts | 318° |
| 2026-05-05 02:16 | -24.99173 | 152.07703 | 38045 ft | 374 kts | 319° |
| 2026-05-05 02:17 | -24.94920 | 152.04372 | 38042 ft | 374 kts | 319° |
| 2026-05-05 02:17 | -24.90667 | 152.01043 | 38047 ft | 376 kts | 319° |
| 2026-05-05 02:18 | -24.86426 | 151.97726 | 38044 ft | 377 kts | 319° |
| 2026-05-05 02:18 | -24.82139 | 151.94377 | 38050 ft | 378 kts | 319° |
| 2026-05-05 02:19 | -24.77840 | 151.91022 | 38049 ft | 379 kts | 319° |
| 2026-05-05 02:19 | -24.73526 | 151.87657 | 38047 ft | 381 kts | 319° |
| 2026-05-05 02:20 | -24.69200 | 151.84286 | 38042 ft | 382 kts | 319° |
| 2026-05-05 02:20 | -24.64865 | 151.80912 | 38046 ft | 382 kts | 319° |
| 2026-05-05 02:21 | -24.60531 | 151.77533 | 38026 ft | 383 kts | 319° |
| 2026-05-05 02:21 | -24.56184 | 151.74155 | 38038 ft | 383 kts | 319° |
| 2026-05-05 02:22 | -24.51840 | 151.70788 | 38038 ft | 382 kts | 319° |
| 2026-05-05 02:22 | -24.47506 | 151.67427 | 38048 ft | 381 kts | 319° |
| 2026-05-05 02:23 | -24.43173 | 151.64068 | 38042 ft | 381 kts | 319° |
| 2026-05-05 02:23 | -24.38851 | 151.60720 | 38049 ft | 380 kts | 319° |
| 2026-05-05 02:24 | -24.34562 | 151.57401 | 38038 ft | 380 kts | 319° |
| 2026-05-05 02:24 | -24.30249 | 151.54067 | 38044 ft | 379 kts | 319° |
| 2026-05-05 02:25 | -24.25944 | 151.50741 | 38043 ft | 378 kts | 319° |
| 2026-05-05 02:25 | -24.21664 | 151.47437 | 38039 ft | 378 kts | 319° |
| 2026-05-05 02:26 | -24.17385 | 151.44137 | 38043 ft | 378 kts | 319° |
| 2026-05-05 02:26 | -24.13069 | 151.40825 | 38040 ft | 379 kts | 319° |
| 2026-05-05 02:27 | -24.08750 | 151.37501 | 38039 ft | 379 kts | 319° |
| 2026-05-05 02:27 | -24.04434 | 151.34178 | 38042 ft | 380 kts | 319° |
| 2026-05-05 02:28 | -24.00106 | 151.30848 | 38035 ft | 380 kts | 319° |
| 2026-05-05 02:28 | -23.96503 | 151.28080 | 38038 ft | 381 kts | 319° |
| 2026-05-05 02:29 | -23.92169 | 151.24752 | 38037 ft | 381 kts | 319° |
| 2026-05-05 02:29 | -23.87826 | 151.21421 | 38049 ft | 381 kts | 319° |
| 2026-05-05 02:30 | -23.83327 | 151.18296 | 38046 ft | 385 kts | 323° |
| 2026-05-05 02:30 | -23.78700 | 151.15349 | 38049 ft | 385 kts | 323° |
| 2026-05-05 02:31 | -23.74068 | 151.12404 | 38044 ft | 385 kts | 323° |
| 2026-05-05 02:31 | -23.69465 | 151.09462 | 38043 ft | 385 kts | 323° |
| 2026-05-05 02:32 | -23.64853 | 151.06509 | 38041 ft | 385 kts | 323° |
| 2026-05-05 02:32 | -23.60236 | 151.03551 | 38040 ft | 384 kts | 323° |
| 2026-05-05 02:33 | -23.55623 | 151.00598 | 38030 ft | 385 kts | 323° |
| 2026-05-05 02:33 | -23.51007 | 150.97645 | 38033 ft | 385 kts | 323° |
| 2026-05-05 02:34 | -23.46392 | 150.94695 | 38037 ft | 385 kts | 323° |
| 2026-05-05 02:34 | -23.41780 | 150.91749 | 38036 ft | 384 kts | 323° |
| 2026-05-05 02:35 | -23.37195 | 150.88823 | 38032 ft | 384 kts | 323° |
| 2026-05-05 02:35 | -23.32580 | 150.85881 | 38033 ft | 384 kts | 323° |
| 2026-05-05 02:36 | -23.27966 | 150.82941 | 38030 ft | 384 kts | 323° |
| 2026-05-05 02:36 | -23.23353 | 150.80004 | 38034 ft | 384 kts | 323° |
| 2026-05-05 02:37 | -23.18754 | 150.77078 | 38033 ft | 385 kts | 323° |
| 2026-05-05 02:37 | -23.14131 | 150.74140 | 38036 ft | 385 kts | 323° |
| 2026-05-05 02:38 | -23.09503 | 150.71201 | 38040 ft | 386 kts | 323° |
| 2026-05-05 02:38 | -23.04866 | 150.68258 | 38034 ft | 386 kts | 323° |
| 2026-05-05 02:39 | -23.00220 | 150.65312 | 38027 ft | 387 kts | 323° |
| 2026-05-05 02:39 | -22.95572 | 150.62370 | 38041 ft | 387 kts | 323° |
| 2026-05-05 02:40 | -22.90919 | 150.59424 | 38030 ft | 387 kts | 323° |
| 2026-05-05 02:40 | -22.86261 | 150.56476 | 38041 ft | 388 kts | 323° |
| 2026-05-05 02:41 | -22.81585 | 150.53520 | 38021 ft | 389 kts | 323° |
| 2026-05-05 02:41 | -22.76909 | 150.50568 | 38034 ft | 389 kts | 323° |
| 2026-05-05 02:42 | -22.72260 | 150.47636 | 38016 ft | 389 kts | 323° |
| 2026-05-05 02:42 | -22.67592 | 150.44694 | 38022 ft | 388 kts | 324° |
| 2026-05-05 02:43 | -22.62932 | 150.41757 | 38009 ft | 387 kts | 323° |
| 2026-05-05 02:43 | -22.58280 | 150.38828 | 38019 ft | 386 kts | 323° |
| 2026-05-05 02:44 | -22.53634 | 150.35905 | 38023 ft | 386 kts | 323° |
| 2026-05-05 02:44 | -22.48987 | 150.32985 | 38028 ft | 386 kts | 323° |
| 2026-05-05 02:45 | -22.44344 | 150.30067 | 38022 ft | 386 kts | 323° |
| 2026-05-05 02:45 | -22.39689 | 150.27145 | 38024 ft | 387 kts | 323° |
| 2026-05-05 02:46 | -22.35031 | 150.24224 | 38030 ft | 387 kts | 323° |
| 2026-05-05 02:46 | -22.30367 | 150.21299 | 38023 ft | 388 kts | 323° |
| 2026-05-05 02:47 | -22.25700 | 150.18370 | 38027 ft | 388 kts | 323° |
| 2026-05-05 02:47 | -22.21107 | 150.15385 | 38025 ft | 388 kts | 323° |
| 2026-05-05 02:48 | -22.16458 | 150.12332 | 38024 ft | 389 kts | 323° |
| 2026-05-05 02:48 | -22.11828 | 150.09300 | 38026 ft | 390 kts | 323° |
| 2026-05-05 02:49 | -22.07185 | 150.06267 | 38023 ft | 390 kts | 323° |
| 2026-05-05 02:49 | -22.02532 | 150.03232 | 37719 ft | 396 kts | 323° |
| 2026-05-05 02:49 | -22.00199 | 150.01711 | 37260 ft | 396 kts | 323° |
| 2026-05-05 02:50 | -21.97846 | 150.00180 | 36720 ft | 394 kts | 323° |
| 2026-05-05 02:50 | -21.95500 | 149.98654 | 36143 ft | 394 kts | 323° |
| 2026-05-05 02:50 | -21.93151 | 149.97127 | 35544 ft | 395 kts | 324° |
| 2026-05-05 02:50 | -21.90815 | 149.95606 | 34901 ft | 398 kts | 324° |
| 2026-05-05 02:51 | -21.88441 | 149.94062 | 34252 ft | 400 kts | 324° |
| 2026-05-05 02:51 | -21.86043 | 149.92503 | 33520 ft | 404 kts | 324° |
| 2026-05-05 02:51 | -21.83635 | 149.90938 | 32873 ft | 404 kts | 324° |
| 2026-05-05 02:51 | -21.81238 | 149.89383 | 32416 ft | 401 kts | 325° |
| 2026-05-05 02:52 | -21.78858 | 149.87840 | 31932 ft | 398 kts | 325° |
| 2026-05-05 02:52 | -21.76494 | 149.86308 | 31466 ft | 395 kts | 325° |
| 2026-05-05 02:52 | -21.74151 | 149.84790 | 31007 ft | 392 kts | 325° |
| 2026-05-05 02:52 | -21.71822 | 149.83280 | 30558 ft | 390 kts | 325° |
| 2026-05-05 02:53 | -21.69507 | 149.81779 | 30080 ft | 388 kts | 325° |
| 2026-05-05 02:53 | -21.67203 | 149.80287 | 29558 ft | 385 kts | 326° |
| 2026-05-05 02:53 | -21.64919 | 149.78808 | 29060 ft | 382 kts | 326° |
| 2026-05-05 02:53 | -21.62655 | 149.77342 | 28581 ft | 378 kts | 326° |
| 2026-05-05 02:54 | -21.60413 | 149.75891 | 28112 ft | 375 kts | 326° |
| 2026-05-05 02:54 | -21.58188 | 149.74451 | 27662 ft | 372 kts | 326° |
| 2026-05-05 02:54 | -21.55982 | 149.73024 | 27220 ft | 369 kts | 326° |
| 2026-05-05 02:54 | -21.53790 | 149.71608 | 26771 ft | 366 kts | 326° |
| 2026-05-05 02:55 | -21.51616 | 149.70203 | 26338 ft | 364 kts | 326° |
| 2026-05-05 02:55 | -21.49452 | 149.68804 | 25895 ft | 362 kts | 327° |
| 2026-05-05 02:55 | -21.47301 | 149.67415 | 25461 ft | 360 kts | 327° |
| 2026-05-05 02:55 | -21.45161 | 149.66033 | 25016 ft | 359 kts | 327° |
| 2026-05-05 02:56 | -21.43028 | 149.64656 | 24581 ft | 357 kts | 327° |
| 2026-05-05 02:56 | -21.40897 | 149.63281 | 24133 ft | 357 kts | 327° |
| 2026-05-05 02:56 | -21.38772 | 149.61911 | 23696 ft | 356 kts | 327° |
| 2026-05-05 02:56 | -21.36651 | 149.60543 | 23203 ft | 355 kts | 327° |
| 2026-05-05 02:57 | -21.34565 | 149.59199 | 22742 ft | 353 kts | 328° |
| 2026-05-05 02:57 | -21.32466 | 149.57847 | 22304 ft | 351 kts | 328° |
| 2026-05-05 02:57 | -21.30353 | 149.56487 | 21872 ft | 349 kts | 328° |
| 2026-05-05 02:57 | -21.28306 | 149.55169 | 21451 ft | 347 kts | 327° |
| 2026-05-05 02:58 | -21.26244 | 149.53842 | 21030 ft | 345 kts | 327° |
| 2026-05-05 02:58 | -21.24195 | 149.52524 | 20619 ft | 343 kts | 327° |
| 2026-05-05 02:58 | -21.22155 | 149.51211 | 20206 ft | 341 kts | 327° |
| 2026-05-05 02:58 | -21.20122 | 149.49905 | 19798 ft | 340 kts | 327° |
| 2026-05-05 02:59 | -21.18100 | 149.48605 | 19391 ft | 339 kts | 327° |
| 2026-05-05 02:59 | -21.16080 | 149.47307 | 18987 ft | 338 kts | 327° |
| 2026-05-05 02:59 | -21.14066 | 149.46013 | 18560 ft | 338 kts | 327° |
| 2026-05-05 02:59 | -21.12054 | 149.44721 | 18126 ft | 337 kts | 327° |
| 2026-05-05 03:00 | -21.10048 | 149.43433 | 17680 ft | 336 kts | 327° |
| 2026-05-05 03:00 | -21.08048 | 149.42149 | 17261 ft | 334 kts | 328° |
| 2026-05-05 03:00 | -21.06064 | 149.40877 | 16865 ft | 332 kts | 328° |
| 2026-05-05 03:00 | -21.04089 | 149.39610 | 16457 ft | 330 kts | 328° |
| 2026-05-05 03:01 | -21.02123 | 149.38350 | 16045 ft | 329 kts | 328° |
| 2026-05-05 03:01 | -21.00165 | 149.37095 | 15661 ft | 327 kts | 328° |
| 2026-05-05 03:01 | -20.98216 | 149.35846 | 15278 ft | 326 kts | 328° |
| 2026-05-05 03:01 | -20.96272 | 149.34601 | 14891 ft | 325 kts | 328° |
| 2026-05-05 03:02 | -20.94335 | 149.33361 | 14502 ft | 324 kts | 328° |
| 2026-05-05 03:02 | -20.92404 | 149.32124 | 14099 ft | 323 kts | 328° |
| 2026-05-05 03:02 | -20.90477 | 149.30891 | 13699 ft | 323 kts | 328° |
| 2026-05-05 03:02 | -20.88551 | 149.29659 | 13281 ft | 322 kts | 328° |
| 2026-05-05 03:03 | -20.86633 | 149.28432 | 12878 ft | 321 kts | 329° |
| 2026-05-05 03:03 | -20.84742 | 149.27222 | 12493 ft | 319 kts | 329° |
| 2026-05-05 03:03 | -20.82840 | 149.26007 | 12114 ft | 318 kts | 329° |
| 2026-05-05 03:03 | -20.80944 | 149.24795 | 11738 ft | 317 kts | 329° |
| 2026-05-05 03:04 | -20.79057 | 149.23589 | 11370 ft | 315 kts | 329° |
| 2026-05-05 03:04 | -20.77177 | 149.22389 | 11003 ft | 314 kts | 329° |
| 2026-05-05 03:04 | -20.75299 | 149.21190 | 10635 ft | 314 kts | 330° |
| 2026-05-05 03:04 | -20.73446 | 149.20007 | 10459 ft | 306 kts | 330° |
| 2026-05-05 03:05 | -20.71638 | 149.18853 | 10299 ft | 299 kts | 330° |
| 2026-05-05 03:05 | -20.69902 | 149.17744 | 10167 ft | 291 kts | 330° |
| 2026-05-05 03:05 | -20.68191 | 149.16652 | 10048 ft | 283 kts | 330° |
| 2026-05-05 03:05 | -20.66529 | 149.15593 | 9816 ft | 280 kts | 330° |
| 2026-05-05 03:06 | -20.64857 | 149.14526 | 9514 ft | 280 kts | 330° |
| 2026-05-05 03:06 | -20.63191 | 149.13464 | 9227 ft | 278 kts | 331° |
| 2026-05-05 03:06 | -20.61534 | 149.12408 | 8941 ft | 277 kts | 330° |
| 2026-05-05 03:06 | -20.59881 | 149.11356 | 8661 ft | 276 kts | 331° |
| 2026-05-05 03:07 | -20.58238 | 149.10311 | 8386 ft | 275 kts | 330° |
| 2026-05-05 03:07 | -20.56593 | 149.09264 | 8111 ft | 277 kts | 332° |
| 2026-05-05 03:07 | -20.54921 | 149.08203 | 7854 ft | 283 kts | 330° |
| 2026-05-05 03:07 | -20.53209 | 149.07116 | 7576 ft | 290 kts | 331° |
| 2026-05-05 03:08 | -20.51470 | 149.06006 | 7291 ft | 292 kts | 331° |
| 2026-05-05 03:08 | -20.49746 | 149.04907 | 6984 ft | 292 kts | 330° |
| 2026-05-05 03:08 | -20.48002 | 149.03800 | 6692 ft | 291 kts | 331° |
| 2026-05-05 03:08 | -20.46262 | 149.02694 | 6395 ft | 291 kts | 330° |
| 2026-05-05 03:09 | -20.44525 | 149.01582 | 6096 ft | 290 kts | 329° |
| 2026-05-05 03:09 | -20.42819 | 149.00483 | 5956 ft | 283 kts | 330° |
| 2026-05-05 03:09 | -20.41149 | 148.99421 | 5823 ft | 276 kts | 330° |
| 2026-05-05 03:09 | -20.39521 | 148.98388 | 5701 ft | 269 kts | 330° |
| 2026-05-05 03:10 | -20.37933 | 148.97380 | 5593 ft | 262 kts | 330° |
| 2026-05-05 03:10 | -20.36402 | 148.96408 | 5486 ft | 255 kts | 331° |
| 2026-05-05 03:10 | -20.34764 | 148.95819 | 5351 ft | 245 kts | 2° |
| 2026-05-05 03:10 | -20.33108 | 148.96024 | 5192 ft | 237 kts | 14° |
| 2026-05-05 03:11 | -20.31525 | 148.96413 | 4979 ft | 230 kts | 17° |
| 2026-05-05 03:11 | -20.29994 | 148.96805 | 4725 ft | 223 kts | 16° |
| 2026-05-05 03:11 | -20.28510 | 148.97182 | 4491 ft | 215 kts | 15° |
| 2026-05-05 03:11 | -20.27064 | 148.97537 | 4260 ft | 210 kts | 14° |
| 2026-05-05 03:12 | -20.25624 | 148.97704 | 4102 ft | 211 kts | 355° |
| 2026-05-05 03:12 | -20.24252 | 148.97185 | 3877 ft | 210 kts | 328° |
| 2026-05-05 03:12 | -20.23198 | 148.96145 | 3695 ft | 204 kts | 307° |
| 2026-05-05 03:12 | -20.22489 | 148.94873 | 3463 ft | 202 kts | 290° |
| 2026-05-05 03:13 | -20.22162 | 148.93456 | 3176 ft | 198 kts | 270° |
| 2026-05-05 03:13 | -20.22298 | 148.92025 | 2947 ft | 192 kts | 249° |
| 2026-05-05 03:13 | -20.22852 | 148.90767 | 2717 ft | 185 kts | 229° |
| 2026-05-05 03:13 | -20.23706 | 148.89787 | 2493 ft | 178 kts | 212° |
| 2026-05-05 03:14 | -20.24750 | 148.89133 | 2293 ft | 171 kts | 197° |
| 2026-05-05 03:14 | -20.25887 | 148.88806 | 2073 ft | 168 kts | 181° |
| 2026-05-05 03:14 | -20.27027 | 148.88826 | 1866 ft | 159 kts | 166° |
| 2026-05-05 03:14 | -20.28045 | 148.89146 | 1704 ft | 145 kts | 153° |
| 2026-05-05 03:15 | -20.28899 | 148.89669 | 1487 ft | 138 kts | 140° |
| 2026-05-05 03:15 | -20.29645 | 148.90293 | 1343 ft | 134 kts | 140° |
| 2026-05-05 03:15 | -20.30378 | 148.90882 | 1155 ft | 134 kts | 142° |
| 2026-05-05 03:15 | -20.31143 | 148.91448 | 1021 ft | 133 kts | 143° |
| 2026-05-05 03:16 | -20.31878 | 148.92051 | 858 ft | 134 kts | 144° |
| 2026-05-05 03:16 | -20.32621 | 148.92651 | 670 ft | 131 kts | 142° |
| 2026-05-05 03:16 | -20.33318 | 148.93226 | 491 ft | 123 kts | 143° |
| 2026-05-05 03:16 | -20.34011 | 148.93783 | 355 ft | 127 kts | 143° |
| 2026-05-05 03:17 | -20.34727 | 148.94347 | 161 ft | 127 kts | 146° |
| 2026-05-05 03:17 | -20.35199 | 148.94725 | 38 ft | 128 kts | 145° |
| 2026-05-05 03:17 | -20.35837 | 148.95235 | 23 ft | 88 kts | 142° |
| 2026-05-05 03:17 | -20.36230 | 148.95552 | 21 ft | 32 kts | 143° |
| 2026-05-05 03:18 | -20.36342 | 148.95635 | 22 ft | 15 kts | 162° |
| 2026-05-05 03:18 | -20.36414 | 148.95660 | 21 ft | 10 kts | 97° |
| 2026-05-05 03:18 | -20.36392 | 148.95686 | 22 ft | 4 kts | 4° |
| 2026-05-05 03:18 | -20.36368 | 148.95667 | 22 ft | 6 kts | 316° |
| 2026-05-05 03:19 | -20.36183 | 148.95515 | 20 ft | 23 kts | 323° |
| 2026-05-05 03:19 | -20.36055 | 148.95412 | 20 ft | 23 kts | 322° |
| 2026-05-05 03:19 | -20.35933 | 148.95314 | 20 ft | 22 kts | 323° |
| 2026-05-05 03:20 | -20.35813 | 148.95217 | 22 ft | 21 kts | 323° |
| 2026-05-05 03:20 | -20.35698 | 148.95125 | 22 ft | 21 kts | 323° |
| 2026-05-05 03:20 | -20.35585 | 148.95034 | 26 ft | 20 kts | 323° |
| 2026-05-05 03:20 | -20.35481 | 148.94950 | 21 ft | 15 kts | 321° |
| 2026-05-05 03:21 | -20.35398 | 148.94952 | 20 ft | 11 kts | 50° |
| 2026-05-05 03:21 | -20.35350 | 148.95001 | 19 ft | 8 kts | 17° |
| 2026-05-05 03:21 | -20.35299 | 148.94976 | 19 ft | 8 kts | 321° |
| 2026-05-05 03:21 | -20.35263 | 148.94961 | 19 ft | 2 kts | 12° |
| 2026-05-05 03:22 | -20.35249 | 148.94965 | 19 ft | 2 kts | 12° |
| 2026-05-05 03:22 | -20.35236 | 148.94970 | 19 ft | 2 kts | 36° |
| 2026-05-05 03:22 | -20.35242 | 148.94985 | 19 ft | 3 kts | 143° |
| 2026-05-05 03:22 | -20.35248 | 148.94988 | 19 ft | 1 kts | 153° |
| 2026-05-05 03:23 | -20.35250 | 148.94989 | 19 ft | 0 kts | 149° |